Terminal Aerodrome Forecast
Issued by NWS Buffalo, NY

Home | Current Version | Previous Version | Text Only | Print | Product List | Glossary On
Versions: 1 2 3 4 5 6 7 8 9 10 11 12 13 14 15 16 17 18 19 20 21 22 23 24
106
FTUS41 KBUF 080539
TAFROC
TAF
KROC 080539Z 0806/0906 25009KT P6SM OVC040
     FM081400 26013G22KT P6SM BKN100
     FM082200 26017G26KT P6SM BKN060
     FM090500 27017G24KT 6SM -SN VCSH BKN025=

USA.gov is the U.S. government's official web portal to all federal, state and local government web resources and services.